Time;durP1;ratioP1;P1;durP2;ratioP2;P2;SDS_P1;SDS_P2;PMS_P1;PMS_P2;Temp;Humidity;BMP_temperature;BMP_pressure;BME280_temperature;BME280_humidity;BME280_pressure;Samples;Min_cycle;Max_cycle;Signal;HPM_P1;HPM_P2
2021/08/16 00:01:01;;;;;;;5.40;2.40;;;24.10;99.90;;;;;;5006891;28;20192;-74
2021/08/16 00:03:27;;;;;;;2.90;1.80;;;24.10;99.90;;;;;;5005423;28;20219;-73
2021/08/16 00:05:53;;;;;;;5.27;2.10;;;24.00;99.90;;;;;;5005082;28;20208;-72
2021/08/16 00:08:20;;;;;;;3.27;2.43;;;24.00;99.90;;;;;;5004996;28;20204;-72
2021/08/16 00:10:46;;;;;;;3.83;2.40;;;24.10;99.90;;;;;;5004352;28;20757;-73
2021/08/16 00:13:13;;;;;;;2.00;1.80;;;24.10;99.90;;;;;;5005601;28;20181;-73
2021/08/16 00:15:40;;;;;;;3.63;2.03;;;24.10;99.90;;;;;;5003560;28;20189;-74
2021/08/16 00:18:06;;;;;;;5.47;1.77;;;24.10;99.90;;;;;;4995233;28;20279;-74
2021/08/16 00:20:33;;;;;;;6.10;2.00;;;24.10;99.90;;;;;;4998868;28;20193;-72
2021/08/16 00:22:59;;;;;;;10.37;2.33;;;24.10;99.90;;;;;;5002674;28;20464;-74
2021/08/16 00:25:26;;;;;;;4.23;1.90;;;24.10;99.90;;;;;;5003493;28;20251;-73
2021/08/16 00:27:53;;;;;;;7.23;2.37;;;24.10;99.90;;;;;;5005900;28;20193;-72
2021/08/16 00:30:20;;;;;;;3.57;2.00;;;24.00;99.90;;;;;;5007676;28;20213;-74
2021/08/16 00:32:47;;;;;;;7.87;2.17;;;24.00;99.90;;;;;;5002694;28;20195;-73
2021/08/16 00:35:13;;;;;;;3.33;2.07;;;24.00;99.90;;;;;;5002717;28;20185;-72
2021/08/16 00:37:39;;;;;;;5.70;2.20;;;24.00;99.90;;;;;;5004064;28;20649;-74
2021/08/16 00:40:07;;;;;;;7.97;2.30;;;24.00;99.90;;;;;;5003642;28;20231;-74
2021/08/16 00:42:35;;;;;;;3.87;1.77;;;24.00;99.90;;;;;;5001350;28;20251;-73
2021/08/16 00:45:03;;;;;;;3.27;2.10;;;24.00;99.90;;;;;;5002513;28;20200;-72
2021/08/16 00:47:31;;;;;;;6.40;1.90;;;24.10;99.90;;;;;;5004056;28;20197;-73
2021/08/16 00:49:57;;;;;;;2.50;1.90;;;24.00;99.90;;;;;;4978617;28;20213;-73
2021/08/16 00:52:24;;;;;;;4.47;1.80;;;24.00;99.90;;;;;;5002842;28;20188;-73
2021/08/16 00:54:52;;;;;;;2.80;2.03;;;23.90;99.70;;;;;;5005878;28;20193;-72
2021/08/16 00:57:19;;;;;;;3.60;1.90;;;23.90;99.70;;;;;;5005133;28;20969;-73
2021/08/16 00:59:46;;;;;;;4.03;1.60;;;23.80;99.20;;;;;;4997818;28;20232;-73
2021/08/16 01:02:13;;;;;;;5.30;2.10;;;23.80;99.40;;;;;;5006739;28;20188;-72
2021/08/16 01:04:39;;;;;;;5.33;2.00;;;23.80;99.10;;;;;;5002181;28;20197;-76
2021/08/16 01:07:05;;;;;;;3.43;1.80;;;23.80;99.10;;;;;;5002208;28;20264;-72
2021/08/16 01:09:33;;;;;;;3.50;2.13;;;23.80;99.30;;;;;;5002348;28;20201;-72
2021/08/16 01:12:00;;;;;;;23.90;2.37;;;23.70;99.30;;;;;;5000716;28;20239;-74
2021/08/16 01:14:26;;;;;;;4.93;2.00;;;23.70;99.00;;;;;;5001753;28;20247;-71
2021/08/16 01:16:52;;;;;;;4.17;2.00;;;23.70;99.00;;;;;;5004049;28;20193;-70
2021/08/16 01:19:23;;;;;;;5.67;2.03;;;23.70;98.80;;;;;;4999050;28;20304;-75
2021/08/16 01:21:50;;;;;;;4.03;1.77;;;23.70;98.60;;;;;;4997177;28;20303;-74
2021/08/16 01:24:18;;;;;;;7.93;2.20;;;23.60;98.10;;;;;;5004441;28;20275;-71
2021/08/16 01:26:44;;;;;;;3.90;2.20;;;23.60;98.20;;;;;;5003167;28;20193;-72
2021/08/16 01:29:37;;;;;;;3.67;2.00;;;23.60;97.90;;;;;;5001068;28;20718;-72
2021/08/16 01:32:05;;;;;;;4.67;1.80;;;23.60;98.40;;;;;;5014909;28;20216;-72
2021/08/16 01:34:32;;;;;;;3.53;1.87;;;23.50;98.30;;;;;;4999365;28;20217;-74
2021/08/16 01:36:59;;;;;;;5.00;1.67;;;23.40;98.20;;;;;;5003035;28;20551;-74
2021/08/16 01:39:27;;;;;;;4.13;1.97;;;23.40;98.40;;;;;;4999625;28;20542;-73
2021/08/16 01:41:54;;;;;;;3.07;1.90;;;23.40;98.60;;;;;;4999998;28;20280;-74
2021/08/16 01:44:22;;;;;;;4.90;2.20;;;23.40;98.50;;;;;;5003589;28;20283;-72
2021/08/16 01:46:51;;;;;;;4.10;2.03;;;23.40;98.50;;;;;;5002503;28;20255;-71
2021/08/16 01:49:17;;;;;;;3.43;2.03;;;23.40;99.00;;;;;;5003268;28;20212;-70
2021/08/16 01:51:44;;;;;;;5.23;1.93;;;23.40;98.70;;;;;;4993078;28;20624;-72
2021/08/16 01:54:11;;;;;;;4.70;2.00;;;23.40;98.20;;;;;;5002694;28;20187;-71
2021/08/16 01:56:39;;;;;;;2.90;1.90;;;23.40;98.60;;;;;;5000651;28;20200;-73
2021/08/16 01:59:06;;;;;;;4.87;1.90;;;23.40;98.40;;;;;;4999793;28;20192;-72
2021/08/16 02:01:33;;;;;;;3.47;2.03;;;23.30;98.40;;;;;;5003159;28;20224;-72
2021/08/16 02:03:59;;;;;;;6.53;2.53;;;23.30;98.50;;;;;;5002160;28;20197;-73
2021/08/16 02:06:26;;;;;;;4.53;1.90;;;23.40;98.80;;;;;;4985106;28;20189;-72
2021/08/16 02:08:52;;;;;;;3.20;1.73;;;23.40;98.90;;;;;;5013893;28;20185;-72
2021/08/16 02:11:18;;;;;;;4.27;2.00;;;23.40;98.40;;;;;;4988588;28;20213;-71
2021/08/16 02:13:45;;;;;;;4.80;2.10;;;23.40;98.50;;;;;;5000367;28;20276;-74
2021/08/16 02:16:13;;;;;;;4.90;2.00;;;23.50;98.60;;;;;;5000061;28;20184;-74
2021/08/16 02:18:40;;;;;;;7.53;2.30;;;23.50;99.20;;;;;;4999942;28;20200;-73
2021/08/16 02:21:08;;;;;;;5.10;2.00;;;23.50;99.20;;;;;;4999868;28;20250;-72
2021/08/16 02:23:34;;;;;;;3.63;1.80;;;23.50;99.50;;;;;;4997921;28;20223;-69
2021/08/16 02:26:01;;;;;;;3.83;2.23;;;23.50;99.60;;;;;;5001886;28;20192;-71
2021/08/16 02:28:28;;;;;;;4.20;1.90;;;23.50;99.70;;;;;;4997201;28;20304;-72
2021/08/16 02:30:54;;;;;;;4.00;2.77;;;23.50;99.90;;;;;;5000649;28;20212;-73
2021/08/16 02:33:21;;;;;;;5.07;2.00;;;23.50;99.90;;;;;;5001798;28;20255;-71
2021/08/16 02:35:47;;;;;;;4.97;2.50;;;23.50;99.90;;;;;;5016105;28;20182;-71
2021/08/16 02:38:13;;;;;;;3.43;2.10;;;23.50;99.90;;;;;;5002792;28;20184;-72
2021/08/16 02:40:40;;;;;;;6.93;2.30;;;23.50;99.90;;;;;;5002484;28;20278;-74
2021/08/16 02:43:06;;;;;;;6.40;2.20;;;23.50;99.90;;;;;;5003505;28;20197;-71
2021/08/16 02:45:33;;;;;;;4.93;2.53;;;23.40;99.90;;;;;;5001586;28;20185;-73
2021/08/16 02:47:59;;;;;;;6.17;2.40;;;23.40;99.90;;;;;;5000422;28;20204;-72
2021/08/16 02:50:25;;;;;;;5.23;2.33;;;23.40;99.90;;;;;;4995960;28;20225;-73
2021/08/16 02:52:51;;;;;;;10.20;2.37;;;23.30;99.90;;;;;;5007763;28;20189;-75
2021/08/16 02:55:18;;;;;;;4.43;2.60;;;23.40;99.90;;;;;;5003229;28;20247;-72
2021/08/16 02:57:44;;;;;;;7.33;2.40;;;23.30;99.90;;;;;;5004660;28;20188;-77
2021/08/16 03:00:12;;;;;;;7.10;2.70;;;23.30;99.90;;;;;;4989130;28;20197;-71
2021/08/16 03:02:39;;;;;;;4.23;2.03;;;23.40;99.90;;;;;;5004696;28;20193;-73
2021/08/16 03:05:05;;;;;;;5.33;2.67;;;23.30;99.90;;;;;;5000771;28;20279;-71
2021/08/16 03:07:32;;;;;;;8.23;2.70;;;23.30;99.90;;;;;;4998931;28;20188;-73
2021/08/16 03:09:58;;;;;;;7.00;2.27;;;23.30;99.90;;;;;;5000702;28;20213;-73
2021/08/16 03:12:24;;;;;;;4.00;2.60;;;23.30;99.90;;;;;;5005224;28;20196;-74
2021/08/16 03:14:51;;;;;;;4.67;2.23;;;23.30;99.90;;;;;;5004525;28;20267;-72
2021/08/16 03:17:17;;;;;;;7.93;2.60;;;23.30;99.90;;;;;;5003956;28;20196;-71
2021/08/16 03:19:44;;;;;;;8.83;2.67;;;23.30;99.90;;;;;;5003842;28;20334;-73
2021/08/16 03:22:10;;;;;;;5.83;2.57;;;23.30;99.90;;;;;;5006914;28;20280;-73
2021/08/16 03:24:36;;;;;;;4.13;2.50;;;23.30;99.90;;;;;;4997421;28;20243;-73
2021/08/16 03:27:03;;;;;;;3.37;2.27;;;23.30;99.90;;;;;;5008834;28;20239;-71
2021/08/16 03:29:29;;;;;;;4.37;2.50;;;23.30;99.90;;;;;;5018715;28;20284;-74
2021/08/16 03:32:00;;;;;;;5.37;2.50;;;23.30;99.90;;;;;;5008735;28;20274;-72
2021/08/16 03:34:28;;;;;;;6.77;2.47;;;23.30;99.90;;;;;;5019071;28;20827;-72
2021/08/16 03:36:54;;;;;;;6.73;2.50;;;23.20;99.90;;;;;;5010424;28;20544;-74
2021/08/16 03:39:21;;;;;;;6.67;2.87;;;23.20;99.90;;;;;;5017390;28;20196;-75
2021/08/16 03:41:47;;;;;;;5.27;2.70;;;23.20;99.90;;;;;;5012749;28;20197;-70
2021/08/16 03:44:13;;;;;;;8.63;2.90;;;23.20;99.90;;;;;;5026923;28;20193;-73
2021/08/16 03:46:39;;;;;;;6.97;2.50;;;23.20;99.90;;;;;;5012484;28;20216;-75
2021/08/16 03:49:05;;;;;;;8.97;2.50;;;23.20;99.90;;;;;;5010939;28;20658;-73
2021/08/16 03:51:32;;;;;;;6.97;2.20;;;23.20;99.90;;;;;;5010053;28;20311;-72
2021/08/16 03:53:59;;;;;;;5.83;2.70;;;23.20;99.90;;;;;;5004381;28;20184;-73
2021/08/16 03:56:25;;;;;;;6.30;2.37;;;23.20;99.90;;;;;;5002919;28;20185;-73
2021/08/16 03:58:51;;;;;;;7.53;2.40;;;23.20;99.90;;;;;;5023415;28;20188;-74
2021/08/16 04:01:17;;;;;;;7.17;2.43;;;23.20;99.90;;;;;;4991857;28;20220;-73
2021/08/16 04:03:44;;;;;;;11.27;2.80;;;23.20;99.90;;;;;;5010378;28;20185;-73
2021/08/16 04:06:10;;;;;;;14.40;2.90;;;23.20;99.90;;;;;;5009273;28;20203;-72
2021/08/16 04:08:39;;;;;;;12.37;2.77;;;23.20;99.90;;;;;;5006344;28;20825;-75
2021/08/16 04:11:10;;;;;;;7.60;2.97;;;23.30;99.90;;;;;;5008751;28;20219;-72
2021/08/16 04:13:36;;;;;;;7.23;2.53;;;23.30;99.90;;;;;;5010157;28;20696;-76
2021/08/16 04:16:03;;;;;;;6.23;2.90;;;23.20;99.90;;;;;;5008830;28;20185;-72
2021/08/16 04:18:30;;;;;;;6.20;2.40;;;23.30;99.90;;;;;;4985017;28;20287;-72
2021/08/16 04:20:57;;;;;;;8.37;2.40;;;23.40;99.90;;;;;;5008995;28;20195;-76
2021/08/16 04:23:24;;;;;;;6.70;2.47;;;23.40;99.90;;;;;;5010446;28;20676;-73
2021/08/16 04:25:51;;;;;;;8.53;2.93;;;23.40;99.90;;;;;;4997798;28;20202;-74
2021/08/16 04:28:17;;;;;;;4.13;2.50;;;23.30;99.90;;;;;;5005898;28;20190;-74
2021/08/16 04:30:45;;;;;;;10.53;3.10;;;23.30;99.90;;;;;;5008707;28;20745;-71
2021/08/16 04:33:12;;;;;;;5.50;2.93;;;23.40;99.90;;;;;;5002915;28;20575;-74
2021/08/16 04:35:39;;;;;;;7.17;2.90;;;23.30;99.90;;;;;;5014978;28;20181;-73
2021/08/16 04:38:05;;;;;;;5.13;2.70;;;23.30;99.90;;;;;;4988310;28;20579;-74
2021/08/16 04:40:32;;;;;;;5.87;3.00;;;23.40;99.90;;;;;;4991603;28;20185;-73
2021/08/16 04:42:58;;;;;;;4.30;2.40;;;23.40;99.90;;;;;;5008404;28;20227;-72
2021/08/16 04:45:24;;;;;;;8.93;2.90;;;23.40;99.90;;;;;;5009582;28;20203;-75
2021/08/16 04:47:51;;;;;;;5.63;2.60;;;23.50;99.90;;;;;;5009491;28;20189;-74
2021/08/16 04:50:18;;;;;;;7.20;2.90;;;23.50;99.90;;;;;;5024406;28;20273;-73
2021/08/16 04:52:44;;;;;;;3.90;2.53;;;23.60;99.90;;;;;;5009718;28;20196;-72
2021/08/16 04:55:11;;;;;;;12.50;3.00;;;23.60;99.90;;;;;;5007194;28;21834;-72
2021/08/16 04:57:40;;;;;;;7.43;3.07;;;23.70;99.90;;;;;;5001439;28;20201;-72
2021/08/16 05:00:12;;;;;;;4.17;2.63;;;23.80;99.90;;;;;;5008227;28;20565;-74
2021/08/16 05:02:40;;;;;;;4.73;3.00;;;23.80;99.90;;;;;;5025226;28;20312;-74
2021/08/16 05:05:14;;;;;;;9.37;2.93;;;23.90;99.90;;;;;;5008848;28;20200;-73
2021/08/16 05:07:51;;;;;;;7.50;2.90;;;24.00;99.90;;;;;;5022450;28;20195;-73
2021/08/16 05:10:20;;;;;;;6.63;2.92;;;24.00;99.90;;;;;;5015951;28;20295;-74
2021/08/16 05:12:49;;;;;;;10.80;2.63;;;24.00;99.90;;;;;;5024353;28;20197;-73
2021/08/16 05:15:15;;;;;;;5.03;2.78;;;24.10;99.90;;;;;;5008667;28;20184;-72
2021/08/16 05:17:42;;;;;;;5.00;2.83;;;24.10;99.90;;;;;;5018060;28;20748;-73
2021/08/16 05:20:10;;;;;;;7.18;2.75;;;24.20;99.90;;;;;;5025778;28;20216;-71
2021/08/16 05:22:40;;;;;;;4.60;2.67;;;24.30;99.90;;;;;;5018373;28;20648;-72
2021/08/16 05:25:08;;;;;;;5.20;2.70;;;24.40;99.90;;;;;;5023809;28;20227;-72
2021/08/16 05:27:34;;;;;;;6.53;3.05;;;24.50;99.90;;;;;;4993623;28;20192;-73
2021/08/16 05:30:00;;;;;;;3.40;2.63;;;24.60;99.90;;;;;;5006967;28;20236;-74
2021/08/16 05:32:27;;;;;;;5.13;3.00;;;24.70;99.90;;;;;;5009563;28;20937;-72
2021/08/16 05:34:53;;;;;;;7.87;3.03;;;24.70;99.90;;;;;;5006084;28;20335;-71
2021/08/16 05:37:20;;;;;;;8.53;2.80;;;24.80;99.90;;;;;;5010980;28;20274;-73
2021/08/16 05:39:46;;;;;;;6.80;3.40;;;24.80;99.90;;;;;;5009615;28;20200;-70
2021/08/16 05:42:18;;;;;;;4.90;2.70;;;24.90;99.90;;;;;;5009778;28;20222;-73
2021/08/16 05:44:44;;;;;;;9.48;2.85;;;24.90;99.90;;;;;;5009335;28;20193;-72
2021/08/16 05:47:12;;;;;;;6.70;2.53;;;24.90;99.90;;;;;;5006332;28;20706;-71
2021/08/16 05:49:39;;;;;;;8.88;2.92;;;24.90;99.90;;;;;;5007911;28;20216;-71
2021/08/16 05:52:06;;;;;;;7.70;2.78;;;25.00;99.90;;;;;;5009484;28;21357;-73
2021/08/16 05:54:32;;;;;;;7.18;3.05;;;25.10;99.90;;;;;;5002875;28;21097;-72
2021/08/16 05:57:00;;;;;;;5.10;2.80;;;25.10;99.90;;;;;;5005511;28;20248;-73
2021/08/16 05:59:27;;;;;;;7.97;2.90;;;25.20;99.90;;;;;;4999110;28;20188;-72
2021/08/16 06:01:53;;;;;;;10.35;3.20;;;25.30;99.90;;;;;;5007531;28;20193;-72
2021/08/16 06:04:20;;;;;;;6.05;2.50;;;25.40;99.90;;;;;;5014862;28;20549;-74
2021/08/16 06:06:46;;;;;;;7.63;2.78;;;25.60;99.90;;;;;;5008031;28;20204;-72
2021/08/16 06:09:12;;;;;;;6.90;2.80;;;25.60;99.90;;;;;;5004908;28;20203;-74
2021/08/16 06:11:39;;;;;;;5.05;3.00;;;25.60;99.90;;;;;;5007043;28;20208;-72
2021/08/16 06:14:05;;;;;;;7.78;3.05;;;25.80;99.90;;;;;;5009980;28;20192;-73
2021/08/16 06:16:31;;;;;;;8.90;3.22;;;25.90;99.90;;;;;;5005871;28;20192;-72
2021/08/16 06:18:59;;;;;;;7.93;2.90;;;26.10;99.90;;;;;;5008214;28;20938;-73
2021/08/16 06:21:25;;;;;;;8.45;3.03;;;26.20;99.90;;;;;;5006732;28;20205;-72
2021/08/16 06:23:51;;;;;;;6.43;2.92;;;26.30;99.90;;;;;;5007759;28;20194;-74
2021/08/16 06:26:18;;;;;;;7.38;3.53;;;26.20;99.90;;;;;;5009728;28;20197;-69
2021/08/16 06:28:45;;;;;;;8.55;2.70;;;26.40;99.90;;;;;;4992211;28;20192;-74
2021/08/16 06:31:12;;;;;;;5.10;2.78;;;26.50;99.90;;;;;;5002377;28;20216;-73
2021/08/16 06:33:40;;;;;;;10.10;2.97;;;26.60;99.90;;;;;;5006711;28;20844;-71
2021/08/16 06:36:07;;;;;;;4.78;2.67;;;26.70;99.90;;;;;;5009827;28;20654;-73
2021/08/16 06:38:34;;;;;;;4.80;2.80;;;26.70;99.90;;;;;;5005166;28;20185;-70
2021/08/16 06:41:02;;;;;;;8.77;2.65;;;26.70;99.90;;;;;;5006690;28;20193;-73
2021/08/16 06:43:32;;;;;;;5.57;2.63;;;26.80;99.90;;;;;;5007524;28;20179;-73
2021/08/16 06:45:59;;;;;;;7.80;2.90;;;26.90;99.40;;;;;;5008315;28;20192;-73
2021/08/16 06:48:28;;;;;;;6.97;2.60;;;27.00;99.90;;;;;;5006718;28;20212;-73
2021/08/16 06:50:56;;;;;;;6.25;2.88;;;27.00;98.90;;;;;;5008744;28;20200;-75
2021/08/16 06:53:25;;;;;;;8.57;2.72;;;27.10;99.80;;;;;;5007801;28;20188;-70
2021/08/16 06:55:53;;;;;;;5.13;2.75;;;27.30;99.90;;;;;;5009188;28;20312;-72
2021/08/16 06:58:20;;;;;;;13.25;2.92;;;27.30;97.70;;;;;;5007517;28;20203;-73
2021/08/16 07:00:47;;;;;;;4.45;2.70;;;27.30;99.90;;;;;;4982389;28;20329;-71
2021/08/16 07:03:14;;;;;;;8.48;3.05;;;27.30;99.90;;;;;;5011379;28;20271;-72
2021/08/16 07:05:46;;;;;;;8.73;2.83;;;27.40;99.90;;;;;;5010986;28;20216;-71
2021/08/16 07:08:14;;;;;;;8.23;3.20;;;27.60;99.90;;;;;;4992119;28;20184;-71
2021/08/16 07:10:43;;;;;;;5.50;2.72;;;27.70;99.90;;;;;;5017079;28;20213;-70
2021/08/16 07:13:10;;;;;;;5.65;2.97;;;27.80;99.90;;;;;;5010891;28;20233;-71
2021/08/16 07:15:38;;;;;;;10.20;2.70;;;27.80;99.90;;;;;;5010261;28;20190;-69
2021/08/16 07:18:05;;;;;;;7.55;3.10;;;27.90;99.90;;;;;;5009317;28;20219;-72
2021/08/16 07:20:33;;;;;;;6.88;3.15;;;27.90;99.90;;;;;;4999597;28;20579;-69
2021/08/16 07:23:00;;;;;;;5.25;3.00;;;27.90;99.90;;;;;;5005793;28;20200;-69
2021/08/16 07:25:26;;;;;;;8.00;2.90;;;28.00;99.90;;;;;;5006741;28;20206;-71
2021/08/16 07:27:53;;;;;;;4.57;2.40;;;28.20;99.90;;;;;;5007130;28;20201;-70
2021/08/16 07:30:20;;;;;;;7.95;3.08;;;28.30;99.90;;;;;;5003136;28;20228;-71
2021/08/16 07:32:46;;;;;;;6.50;3.10;;;28.20;99.90;;;;;;5001483;28;20185;-68
2021/08/16 07:35:21;;;;;;;7.18;2.83;;;28.30;99.90;;;;;;5008360;28;20294;-73
2021/08/16 07:37:48;;;;;;;5.68;2.35;;;28.60;99.90;;;;;;5007839;28;20185;-69
2021/08/16 07:40:16;;;;;;;12.43;3.22;;;28.40;99.90;;;;;;5005967;28;20196;-68
2021/08/16 07:42:42;;;;;;;9.40;3.10;;;28.50;99.90;;;;;;5004717;28;20194;-72
2021/08/16 07:45:10;;;;;;;4.57;2.80;;;28.70;99.90;;;;;;4986072;28;20201;-69
2021/08/16 07:47:40;;;;;;;9.73;3.10;;;28.70;99.90;;;;;;5007584;28;20193;-70
2021/08/16 07:50:11;;;;;;;6.28;2.42;;;28.90;98.60;;;;;;5004454;28;20221;-70
2021/08/16 07:52:43;;;;;;;8.27;3.00;;;29.00;99.90;;;;;;4984075;28;20276;-71
2021/08/16 07:55:10;;;;;;;4.30;2.53;;;29.10;99.90;;;;;;4992925;28;20220;-70
2021/08/16 07:57:37;;;;;;;4.90;2.67;;;29.10;95.20;;;;;;5010873;28;20188;-71
2021/08/16 08:00:09;;;;;;;7.68;3.55;;;29.00;97.50;;;;;;4985181;28;20201;-71
2021/08/16 08:02:51;;;;;;;8.88;3.40;;;29.20;99.90;;;;;;4997389;28;20220;-73
2021/08/16 08:05:23;;;;;;;9.98;3.00;;;29.30;99.90;;;;;;5019903;28;20193;-70
2021/08/16 08:07:50;;;;;;;10.88;3.47;;;29.30;99.90;;;;;;5005982;28;20661;-72
2021/08/16 08:10:20;;;;;;;12.60;3.30;;;29.40;99.90;;;;;;5005323;28;20213;-71
2021/08/16 08:12:48;;;;;;;9.63;3.38;;;29.50;99.90;;;;;;4989442;28;20698;-73
2021/08/16 08:15:18;;;;;;;4.78;3.03;;;29.50;99.90;;;;;;5004829;28;20247;-74
2021/08/16 08:17:50;;;;;;;13.65;3.25;;;29.50;99.90;;;;;;5005869;28;20775;-70
2021/08/16 08:20:18;;;;;;;17.45;4.38;;;29.60;99.90;;;;;;5002667;28;20189;-71
2021/08/16 08:22:45;;;;;;;11.05;3.08;;;29.70;99.90;;;;;;5004262;28;20185;-72
2021/08/16 08:25:11;;;;;;;6.53;3.20;;;29.70;99.90;;;;;;5022116;28;20708;-71
2021/08/16 08:27:38;;;;;;;13.68;3.42;;;29.80;99.90;;;;;;5005107;28;20665;-72
2021/08/16 08:30:07;;;;;;;8.93;3.50;;;29.90;99.90;;;;;;5006540;28;20745;-73
2021/08/16 08:32:54;;;;;;;9.75;2.97;;;30.10;99.90;;;;;;4982679;28;20279;-73
2021/08/16 08:35:21;;;;;;;9.80;3.10;;;30.20;99.90;;;;;;5001198;28;20188;-70
2021/08/16 08:37:49;;;;;;;11.63;3.20;;;30.10;99.90;;;;;;4984863;28;21102;-72
2021/08/16 08:40:17;;;;;;;10.88;3.70;;;30.20;99.90;;;;;;5005784;28;20200;-72
2021/08/16 08:42:53;;;;;;;7.95;3.00;;;30.20;99.90;;;;;;5007135;28;20198;-72
2021/08/16 08:45:22;;;;;;;7.53;3.55;;;30.30;99.90;;;;;;5005455;28;20246;-74
2021/08/16 08:47:54;;;;;;;7.90;3.40;;;30.30;99.90;;;;;;5009805;28;20221;-73
2021/08/16 08:50:22;;;;;;;10.73;3.20;;;30.40;99.90;;;;;;4999433;28;20251;-73
2021/08/16 08:52:53;;;;;;;8.50;3.30;;;30.30;99.90;;;;;;4985758;28;20189;-73
2021/08/16 08:55:19;;;;;;;10.00;3.20;;;30.40;99.90;;;;;;4992072;28;20191;-73
2021/08/16 08:57:46;;;;;;;7.80;3.53;;;30.40;99.90;;;;;;5010390;28;20188;-73
2021/08/16 09:00:18;;;;;;;11.18;3.47;;;30.50;99.90;;;;;;4986187;28;20191;-75
2021/08/16 09:03:03;;;;;;;12.02;3.58;;;30.70;99.90;;;;;;5004209;28;20207;-74
2021/08/16 09:05:34;;;;;;;10.80;3.45;;;30.70;99.90;;;;;;4985770;28;20737;-71
2021/08/16 09:08:01;;;;;;;11.55;3.65;;;30.60;99.90;;;;;;5004072;28;20211;-74
2021/08/16 09:10:28;;;;;;;15.30;4.03;;;30.70;99.90;;;;;;5003015;28;20220;-72
2021/08/16 09:13:00;;;;;;;9.30;3.75;;;30.80;99.90;;;;;;5004069;28;20189;-74
2021/08/16 09:15:31;;;;;;;7.90;3.17;;;30.80;99.90;;;;;;5002022;28;20239;-74
2021/08/16 09:18:03;;;;;;;11.57;3.80;;;31.00;99.90;;;;;;5011845;28;20273;-72
2021/08/16 09:20:34;;;;;;;9.95;4.03;;;31.10;99.90;;;;;;5000166;28;20753;-73
2021/08/16 09:23:06;;;;;;;10.10;4.30;;;31.00;99.90;;;;;;5002740;28;20280;-71
2021/08/16 09:25:38;;;;;;;9.80;3.55;;;31.10;99.90;;;;;;4997340;28;20197;-72
2021/08/16 09:28:07;;;;;;;10.73;3.45;;;31.10;99.90;;;;;;5001270;28;20200;-72
2021/08/16 09:30:37;;;;;;;5.00;3.53;;;31.10;99.90;;;;;;5001562;28;20224;-73
2021/08/16 09:33:30;;;;;;;9.05;3.53;;;31.20;99.90;;;;;;5000729;28;20657;-73
2021/08/16 09:35:59;;;;;;;8.20;3.08;;;31.30;99.90;;;;;;4997228;28;20196;-74
2021/08/16 09:38:37;;;;;;;10.85;3.60;;;31.30;99.90;;;;;;5001287;28;20193;-72
2021/08/16 09:41:17;;;;;;;18.90;3.70;;;31.40;99.90;;;;;;5000706;28;20212;-73
2021/08/16 09:43:45;;;;;;;11.18;3.40;;;31.40;99.90;;;;;;5001395;28;20203;-72
2021/08/16 09:46:16;;;;;;;10.98;3.70;;;31.50;99.90;;;;;;5001558;28;20200;-72
2021/08/16 09:48:44;;;;;;;7.60;4.00;;;31.40;99.90;;;;;;5014715;28;20209;-72
2021/08/16 09:51:24;;;;;;;12.00;3.70;;;31.40;99.90;;;;;;4998817;28;20212;-74
2021/08/16 09:53:52;;;;;;;6.60;3.30;;;32.00;99.90;;;;;;5004032;28;20733;-72
2021/08/16 09:56:20;;;;;;;7.05;3.40;;;32.00;99.90;;;;;;5003661;28;20652;-74
2021/08/16 09:58:48;;;;;;;10.18;3.30;;;32.10;99.90;;;;;;5000768;28;20197;-72
2021/08/16 10:01:16;;;;;;;8.77;3.40;;;32.30;99.90;;;;;;4998812;28;20689;-75
2021/08/16 10:03:45;;;;;;;48.47;5.43;;;32.40;99.90;;;;;;4999285;28;20219;-74
2021/08/16 10:06:18;;;;;;;8.35;3.05;;;32.00;99.90;;;;;;4993416;28;20774;-72
2021/08/16 10:08:55;;;;;;;24.23;4.15;;;32.00;99.90;;;;;;4997538;28;20197;-74
2021/08/16 10:11:23;;;;;;;10.65;3.75;;;32.10;99.90;;;;;;4998913;28;20212;-72
2021/08/16 10:13:52;;;;;;;9.75;3.15;;;32.20;99.10;;;;;;4997512;28;20204;-74
2021/08/16 10:16:26;;;;;;;10.07;3.72;;;32.50;98.50;;;;;;4986329;28;20697;-73
2021/08/16 10:19:19;;;;;;;9.05;3.30;;;34.10;96.10;;;;;;4987061;28;20181;-73
2021/08/16 10:21:47;;;;;;;5.68;3.35;;;35.80;93.70;;;;;;4997634;28;20578;-74
2021/08/16 10:24:26;;;;;;;11.82;3.40;;;35.30;93.30;;;;;;5000203;28;20193;-73
2021/08/16 10:27:11;;;;;;;11.05;3.42;;;34.40;93.40;;;;;;5000607;28;20237;-72
2021/08/16 10:29:40;;;;;;;14.15;3.25;;;33.90;95.50;;;;;;4999528;28;20275;-73
2021/08/16 10:32:19;;;;;;;11.15;2.88;;;33.90;96.10;;;;;;5005866;28;20224;-72
2021/08/16 10:34:46;;;;;;;9.95;3.10;;;34.20;95.10;;;;;;5001867;28;20193;-72
2021/08/16 10:37:15;;;;;;;10.18;3.65;;;36.30;91.70;;;;;;4998945;28;20223;-73
2021/08/16 10:39:46;;;;;;;6.95;3.17;;;38.10;89.40;;;;;;4987045;28;20192;-74
2021/08/16 10:42:12;;;;;;;6.97;3.28;;;39.10;86.90;;;;;;5000893;28;20546;-72
2021/08/16 10:44:48;;;;;;;9.70;3.78;;;39.20;84.00;;;;;;5006765;28;20657;-72
2021/08/16 10:47:33;;;;;;;8.82;3.67;;;36.80;90.60;;;;;;5003805;28;20196;-73
2021/08/16 10:50:12;;;;;;;6.47;3.13;;;35.20;90.80;;;;;;5000340;28;20294;-72
2021/08/16 10:52:41;;;;;;;12.40;3.00;;;34.50;90.30;;;;;;5004617;28;20193;-73
2021/08/16 10:55:25;;;;;;;10.95;3.33;;;34.10;85.70;;;;;;5001855;28;20190;-72
2021/08/16 10:57:53;;;;;;;8.98;3.55;;;33.70;86.50;;;;;;4990796;28;20210;-73
2021/08/16 11:00:20;;;;;;;9.90;3.60;;;33.60;91.00;;;;;;5004468;28;20685;-71
2021/08/16 11:02:54;;;;;;;13.50;3.85;;;33.40;92.60;;;;;;5005211;28;20193;-72
2021/08/16 11:05:34;;;;;;;10.82;3.30;;;33.30;92.40;;;;;;5005573;28;20206;-72
2021/08/16 11:08:03;;;;;;;7.65;3.17;;;33.40;90.40;;;;;;4995542;28;20196;-73
2021/08/16 11:10:45;;;;;;;6.90;3.20;;;33.30;90.20;;;;;;5004777;28;20213;-73
2021/08/16 11:13:18;;;;;;;12.65;2.70;;;33.30;86.50;;;;;;5003863;28;20641;-71
2021/08/16 11:15:48;;;;;;;6.88;3.00;;;33.30;84.30;;;;;;5002140;28;20963;-72
2021/08/16 11:18:20;;;;;;;6.05;2.95;;;33.20;87.50;;;;;;5005931;28;20573;-72
2021/08/16 11:21:01;;;;;;;11.82;3.03;;;33.10;90.00;;;;;;5005226;28;20223;-73
2021/08/16 11:23:28;;;;;;;6.95;2.50;;;33.20;90.40;;;;;;5001698;28;20240;-72
2021/08/16 11:25:58;;;;;;;11.82;3.47;;;33.30;90.10;;;;;;5004138;28;20224;-72
2021/08/16 11:28:28;;;;;;;9.18;3.10;;;33.30;90.60;;;;;;5000306;28;20932;-72
2021/08/16 11:31:08;;;;;;;11.10;3.50;;;33.20;91.50;;;;;;5001407;28;20210;-71
2021/08/16 11:33:36;;;;;;;10.88;3.13;;;33.10;90.60;;;;;;5005770;28;20643;-73
2021/08/16 11:36:14;;;;;;;4.80;2.95;;;33.20;90.60;;;;;;5007018;28;20271;-74
2021/08/16 11:38:44;;;;;;;10.00;3.28;;;33.20;92.00;;;;;;4993143;28;20188;-72
2021/08/16 11:41:14;;;;;;;9.52;3.15;;;33.30;90.70;;;;;;5004035;28;20197;-72
2021/08/16 11:43:41;;;;;;;7.15;3.30;;;33.30;91.90;;;;;;5003118;28;20260;-73
2021/08/16 11:46:13;;;;;;;7.35;3.03;;;33.20;92.60;;;;;;5001695;28;20557;-71
2021/08/16 11:48:43;;;;;;;12.13;3.60;;;33.30;91.60;;;;;;5002097;28;20631;-71
2021/08/16 11:51:11;;;;;;;6.40;3.25;;;33.40;90.50;;;;;;5005116;28;20231;-71
2021/08/16 11:53:43;;;;;;;12.45;3.72;;;33.10;92.20;;;;;;5003000;28;20193;-72
2021/08/16 11:56:11;;;;;;;9.63;3.70;;;32.90;93.80;;;;;;5005183;28;20181;-72
2021/08/16 11:58:39;;;;;;;10.57;3.33;;;33.10;93.30;;;;;;5002911;28;20204;-71
2021/08/16 12:01:08;;;;;;;13.85;3.30;;;33.10;92.60;;;;;;4999977;28;20224;-71
2021/08/16 12:03:36;;;;;;;10.27;3.38;;;33.20;90.60;;;;;;5004082;28;20186;-72
2021/08/16 12:06:15;;;;;;;7.70;3.30;;;33.20;90.20;;;;;;4999917;28;20201;-73
2021/08/16 12:08:41;;;;;;;8.93;3.58;;;33.40;90.40;;;;;;5000529;28;20683;-72
2021/08/16 12:11:13;;;;;;;8.32;3.13;;;33.40;89.90;;;;;;5003368;28;20649;-72
2021/08/16 12:13:41;;;;;;;13.48;3.40;;;33.30;91.30;;;;;;5000145;28;20197;-72
2021/08/16 12:16:14;;;;;;;12.25;3.55;;;33.20;91.10;;;;;;5004730;28;20204;-70
2021/08/16 12:18:41;;;;;;;8.48;3.03;;;32.90;90.30;;;;;;5001984;28;20914;-72
2021/08/16 12:21:18;;;;;;;11.88;2.95;;;33.20;86.90;;;;;;5003538;28;20193;-71
2021/08/16 12:23:58;;;;;;;8.18;3.15;;;32.90;90.10;;;;;;5003302;28;20227;-73
2021/08/16 12:26:36;;;;;;;6.70;2.83;;;33.00;84.50;;;;;;5005225;28;20214;-71
2021/08/16 12:29:25;;;;;;;8.98;3.30;;;33.40;84.50;;;;;;5002838;28;20196;-72
2021/08/16 12:31:51;;;;;;;7.85;3.22;;;33.20;83.60;;;;;;5003503;28;20217;-71
2021/08/16 12:34:17;;;;;;;11.60;3.33;;;33.30;84.40;;;;;;5004486;28;20189;-73
2021/08/16 12:36:54;;;;;;;5.38;3.00;;;33.50;84.30;;;;;;5001475;28;20189;-72
2021/08/16 12:39:21;;;;;;;7.82;3.30;;;33.60;85.20;;;;;;4997673;28;20181;-72
2021/08/16 12:41:48;;;;;;;6.57;2.47;;;33.40;84.10;;;;;;5015999;28;20200;-72
2021/08/16 12:44:23;;;;;;;7.60;2.75;;;33.30;84.50;;;;;;5003659;28;20184;-72
2021/08/16 12:47:01;;;;;;;5.75;2.80;;;33.40;80.60;;;;;;5002191;28;20197;-72
2021/08/16 12:49:29;;;;;;;8.45;2.90;;;33.30;83.30;;;;;;4983922;28;20209;-72
2021/08/16 12:51:56;;;;;;;8.55;3.03;;;33.30;81.70;;;;;;5003503;28;20209;-71
2021/08/16 12:54:23;;;;;;;9.05;3.20;;;33.10;80.70;;;;;;4998976;28;20280;-72